sensor_id;sensor_type;location;lat;lon;timestamp;P1;durP1;ratioP1;P2;durP2;ratioP2
5521;SDS011;2783;48.730;8.006;2022-10-16T00:01:59;7.10;;;6.10;;
5521;SDS011;2783;48.730;8.006;2022-10-16T00:04:25;10.40;;;5.20;;
5521;SDS011;2783;48.730;8.006;2022-10-16T00:06:51;8.55;;;2.97;;
5521;SDS011;2783;48.730;8.006;2022-10-16T00:09:16;5.70;;;3.55;;
5521;SDS011;2783;48.730;8.006;2022-10-16T00:11:42;5.05;;;2.72;;
5521;SDS011;2783;48.730;8.006;2022-10-16T00:14:09;6.30;;;2.22;;
5521;SDS011;2783;48.730;8.006;2022-10-16T00:16:36;4.30;;;3.40;;
5521;SDS011;2783;48.730;8.006;2022-10-16T00:19:02;4.25;;;3.65;;
5521;SDS011;2783;48.730;8.006;2022-10-16T00:21:28;26.42;;;4.55;;
5521;SDS011;2783;48.730;8.006;2022-10-16T00:23:59;8.18;;;3.80;;
5521;SDS011;2783;48.730;8.006;2022-10-16T00:26:28;10.98;;;9.75;;
5521;SDS011;2783;48.730;8.006;2022-10-16T00:28:57;8.48;;;5.00;;
5521;SDS011;2783;48.730;8.006;2022-10-16T00:31:23;5.70;;;3.58;;
5521;SDS011;2783;48.730;8.006;2022-10-16T00:33:49;5.50;;;4.18;;
5521;SDS011;2783;48.730;8.006;2022-10-16T00:36:16;6.00;;;3.72;;
5521;SDS011;2783;48.730;8.006;2022-10-16T00:38:43;4.78;;;3.25;;
5521;SDS011;2783;48.730;8.006;2022-10-16T00:41:10;4.53;;;2.67;;
5521;SDS011;2783;48.730;8.006;2022-10-16T00:43:47;3.00;;;2.25;;
5521;SDS011;2783;48.730;8.006;2022-10-16T00:48:54;15.35;;;14.23;;
5521;SDS011;2783;48.730;8.006;2022-10-16T00:51:25;7.55;;;5.78;;
5521;SDS011;2783;48.730;8.006;2022-10-16T00:53:56;6.60;;;5.90;;
5521;SDS011;2783;48.730;8.006;2022-10-16T00:56:21;4.20;;;3.60;;
5521;SDS011;2783;48.730;8.006;2022-10-16T00:58:47;7.00;;;6.30;;
5521;SDS011;2783;48.730;8.006;2022-10-16T01:01:13;9.13;;;7.07;;
5521;SDS011;2783;48.730;8.006;2022-10-16T01:03:38;14.32;;;13.23;;
5521;SDS011;2783;48.730;8.006;2022-10-16T01:06:10;8.65;;;6.30;;
5521;SDS011;2783;48.730;8.006;2022-10-16T01:12:01;8.20;;;7.40;;
5521;SDS011;2783;48.730;8.006;2022-10-16T01:15:39;7.80;;;5.90;;
5521;SDS011;2783;48.730;8.006;2022-10-16T01:17:57;9.65;;;8.70;;
5521;SDS011;2783;48.730;8.006;2022-10-16T01:20:32;13.50;;;12.40;;
5521;SDS011;2783;48.730;8.006;2022-10-16T01:26:07;11.45;;;9.77;;
5521;SDS011;2783;48.730;8.006;2022-10-16T01:28:54;5.07;;;1.70;;
5521;SDS011;2783;48.730;8.006;2022-10-16T01:31:27;24.83;;;22.58;;
5521;SDS011;2783;48.730;8.006;2022-10-16T01:34:00;14.65;;;12.20;;
5521;SDS011;2783;48.730;8.006;2022-10-16T01:36:35;7.13;;;4.93;;
5521;SDS011;2783;48.730;8.006;2022-10-16T01:39:05;2.38;;;1.27;;
5521;SDS011;2783;48.730;8.006;2022-10-16T01:41:43;2.28;;;0.95;;
5521;SDS011;2783;48.730;8.006;2022-10-16T01:44:16;4.88;;;1.20;;
5521;SDS011;2783;48.730;8.006;2022-10-16T01:46:46;3.58;;;3.17;;
5521;SDS011;2783;48.730;8.006;2022-10-16T01:49:14;7.32;;;6.65;;
5521;SDS011;2783;48.730;8.006;2022-10-16T01:51:43;4.30;;;3.85;;
5521;SDS011;2783;48.730;8.006;2022-10-16T01:54:12;4.07;;;2.17;;
5521;SDS011;2783;48.730;8.006;2022-10-16T01:56:40;5.32;;;3.83;;
5521;SDS011;2783;48.730;8.006;2022-10-16T01:59:09;11.38;;;8.80;;
5521;SDS011;2783;48.730;8.006;2022-10-16T02:01:38;19.10;;;17.35;;
5521;SDS011;2783;48.730;8.006;2022-10-16T02:04:16;16.48;;;14.38;;
5521;SDS011;2783;48.730;8.006;2022-10-16T02:06:42;10.07;;;7.25;;
5521;SDS011;2783;48.730;8.006;2022-10-16T02:09:08;9.02;;;7.60;;
5521;SDS011;2783;48.730;8.006;2022-10-16T02:11:34;5.35;;;3.50;;
5521;SDS011;2783;48.730;8.006;2022-10-16T02:14:03;7.43;;;3.97;;
5521;SDS011;2783;48.730;8.006;2022-10-16T02:16:34;8.18;;;2.60;;
5521;SDS011;2783;48.730;8.006;2022-10-16T02:19:01;6.95;;;4.03;;
5521;SDS011;2783;48.730;8.006;2022-10-16T02:21:37;5.70;;;3.45;;
5521;SDS011;2783;48.730;8.006;2022-10-16T02:24:32;9.98;;;2.75;;
5521;SDS011;2783;48.730;8.006;2022-10-16T02:27:29;9.02;;;2.30;;
5521;SDS011;2783;48.730;8.006;2022-10-16T02:30:01;4.00;;;1.58;;
5521;SDS011;2783;48.730;8.006;2022-10-16T02:32:33;5.05;;;2.80;;
5521;SDS011;2783;48.730;8.006;2022-10-16T02:35:00;3.90;;;2.20;;
5521;SDS011;2783;48.730;8.006;2022-10-16T02:37:27;3.75;;;2.00;;
5521;SDS011;2783;48.730;8.006;2022-10-16T02:39:53;6.95;;;2.30;;
5521;SDS011;2783;48.730;8.006;2022-10-16T02:42:20;4.45;;;1.77;;
5521;SDS011;2783;48.730;8.006;2022-10-16T02:44:52;4.00;;;1.70;;
5521;SDS011;2783;48.730;8.006;2022-10-16T02:47:17;2.78;;;1.40;;
5521;SDS011;2783;48.730;8.006;2022-10-16T02:49:43;1.60;;;1.10;;
5521;SDS011;2783;48.730;8.006;2022-10-16T02:52:08;5.22;;;1.88;;
5521;SDS011;2783;48.730;8.006;2022-10-16T02:54:33;5.43;;;2.00;;
5521;SDS011;2783;48.730;8.006;2022-10-16T02:56:59;2.28;;;1.38;;
5521;SDS011;2783;48.730;8.006;2022-10-16T02:59:24;4.45;;;1.45;;
5521;SDS011;2783;48.730;8.006;2022-10-16T03:01:50;7.07;;;2.00;;
5521;SDS011;2783;48.730;8.006;2022-10-16T03:04:15;2.58;;;1.40;;
5521;SDS011;2783;48.730;8.006;2022-10-16T03:06:40;3.47;;;1.20;;
5521;SDS011;2783;48.730;8.006;2022-10-16T03:09:06;3.47;;;1.70;;
5521;SDS011;2783;48.730;8.006;2022-10-16T03:11:31;6.55;;;1.60;;
5521;SDS011;2783;48.730;8.006;2022-10-16T03:13:57;10.90;;;1.75;;
5521;SDS011;2783;48.730;8.006;2022-10-16T03:16:22;5.07;;;1.80;;
5521;SDS011;2783;48.730;8.006;2022-10-16T03:18:48;5.90;;;1.90;;
5521;SDS011;2783;48.730;8.006;2022-10-16T03:21:17;7.05;;;1.88;;
5521;SDS011;2783;48.730;8.006;2022-10-16T03:23:42;5.03;;;1.77;;
5521;SDS011;2783;48.730;8.006;2022-10-16T03:26:08;3.65;;;1.63;;
5521;SDS011;2783;48.730;8.006;2022-10-16T03:28:33;3.88;;;1.63;;
5521;SDS011;2783;48.730;8.006;2022-10-16T03:30:59;2.95;;;1.67;;
5521;SDS011;2783;48.730;8.006;2022-10-16T03:33:24;2.53;;;1.50;;
5521;SDS011;2783;48.730;8.006;2022-10-16T03:35:53;3.65;;;1.73;;
5521;SDS011;2783;48.730;8.006;2022-10-16T03:38:20;5.32;;;1.40;;
5521;SDS011;2783;48.730;8.006;2022-10-16T03:40:46;5.15;;;1.90;;
5521;SDS011;2783;48.730;8.006;2022-10-16T03:43:11;3.38;;;1.38;;
5521;SDS011;2783;48.730;8.006;2022-10-16T03:45:37;3.33;;;1.73;;
5521;SDS011;2783;48.730;8.006;2022-10-16T03:48:02;3.53;;;1.52;;
5521;SDS011;2783;48.730;8.006;2022-10-16T03:50:28;2.53;;;1.48;;
5521;SDS011;2783;48.730;8.006;2022-10-16T03:52:54;19.35;;;2.70;;
5521;SDS011;2783;48.730;8.006;2022-10-16T03:55:20;4.80;;;1.75;;
5521;SDS011;2783;48.730;8.006;2022-10-16T03:57:45;6.32;;;1.83;;
5521;SDS011;2783;48.730;8.006;2022-10-16T04:00:11;4.60;;;1.60;;
5521;SDS011;2783;48.730;8.006;2022-10-16T04:02:36;2.00;;;1.42;;
5521;SDS011;2783;48.730;8.006;2022-10-16T04:05:02;3.90;;;1.45;;
5521;SDS011;2783;48.730;8.006;2022-10-16T04:07:28;9.32;;;2.53;;
5521;SDS011;2783;48.730;8.006;2022-10-16T04:09:53;4.07;;;1.52;;
5521;SDS011;2783;48.730;8.006;2022-10-16T04:12:19;3.83;;;1.67;;
5521;SDS011;2783;48.730;8.006;2022-10-16T04:14:44;2.95;;;1.58;;
5521;SDS011;2783;48.730;8.006;2022-10-16T04:17:10;5.35;;;1.63;;
5521;SDS011;2783;48.730;8.006;2022-10-16T04:19:35;4.60;;;1.90;;
5521;SDS011;2783;48.730;8.006;2022-10-16T04:22:01;4.93;;;1.65;;
5521;SDS011;2783;48.730;8.006;2022-10-16T04:24:26;3.25;;;1.75;;
5521;SDS011;2783;48.730;8.006;2022-10-16T04:26:51;4.55;;;1.88;;
5521;SDS011;2783;48.730;8.006;2022-10-16T04:29:17;7.60;;;1.77;;
5521;SDS011;2783;48.730;8.006;2022-10-16T04:31:42;6.97;;;2.30;;
5521;SDS011;2783;48.730;8.006;2022-10-16T04:34:08;6.93;;;2.10;;
5521;SDS011;2783;48.730;8.006;2022-10-16T04:36:33;7.88;;;2.13;;
5521;SDS011;2783;48.730;8.006;2022-10-16T04:38:58;8.27;;;2.55;;
5521;SDS011;2783;48.730;8.006;2022-10-16T04:41:24;4.22;;;2.20;;
5521;SDS011;2783;48.730;8.006;2022-10-16T04:43:49;11.43;;;2.40;;
5521;SDS011;2783;48.730;8.006;2022-10-16T04:46:15;11.00;;;2.33;;
5521;SDS011;2783;48.730;8.006;2022-10-16T04:48:40;3.15;;;1.60;;
5521;SDS011;2783;48.730;8.006;2022-10-16T04:51:05;13.55;;;2.33;;
5521;SDS011;2783;48.730;8.006;2022-10-16T04:53:31;6.07;;;2.20;;
5521;SDS011;2783;48.730;8.006;2022-10-16T04:55:56;6.60;;;2.40;;
5521;SDS011;2783;48.730;8.006;2022-10-16T04:58:22;4.10;;;2.10;;
5521;SDS011;2783;48.730;8.006;2022-10-16T05:00:48;8.05;;;2.38;;
5521;SDS011;2783;48.730;8.006;2022-10-16T05:03:13;2.42;;;1.70;;
5521;SDS011;2783;48.730;8.006;2022-10-16T05:05:42;4.53;;;2.10;;
5521;SDS011;2783;48.730;8.006;2022-10-16T05:08:12;7.18;;;1.83;;
5521;SDS011;2783;48.730;8.006;2022-10-16T05:10:38;7.63;;;2.10;;
5521;SDS011;2783;48.730;8.006;2022-10-16T05:13:05;4.43;;;2.13;;
5521;SDS011;2783;48.730;8.006;2022-10-16T05:15:30;7.13;;;2.25;;
5521;SDS011;2783;48.730;8.006;2022-10-16T05:17:56;4.07;;;2.05;;
5521;SDS011;2783;48.730;8.006;2022-10-16T05:20:21;5.32;;;2.65;;
5521;SDS011;2783;48.730;8.006;2022-10-16T05:22:47;5.78;;;1.92;;
5521;SDS011;2783;48.730;8.006;2022-10-16T05:25:13;19.98;;;3.10;;
5521;SDS011;2783;48.730;8.006;2022-10-16T05:27:38;5.88;;;1.70;;
5521;SDS011;2783;48.730;8.006;2022-10-16T05:30:04;5.82;;;2.22;;
5521;SDS011;2783;48.730;8.006;2022-10-16T05:32:30;4.15;;;1.90;;
5521;SDS011;2783;48.730;8.006;2022-10-16T05:34:55;7.97;;;2.33;;
5521;SDS011;2783;48.730;8.006;2022-10-16T05:37:21;7.57;;;2.17;;
5521;SDS011;2783;48.730;8.006;2022-10-16T05:39:46;4.68;;;2.58;;
5521;SDS011;2783;48.730;8.006;2022-10-16T05:42:12;4.38;;;2.25;;
5521;SDS011;2783;48.730;8.006;2022-10-16T05:44:37;5.90;;;2.22;;
5521;SDS011;2783;48.730;8.006;2022-10-16T05:47:03;10.07;;;2.97;;
5521;SDS011;2783;48.730;8.006;2022-10-16T05:49:28;7.97;;;3.22;;
5521;SDS011;2783;48.730;8.006;2022-10-16T05:51:54;3.42;;;2.00;;
5521;SDS011;2783;48.730;8.006;2022-10-16T05:54:19;5.00;;;2.40;;
5521;SDS011;2783;48.730;8.006;2022-10-16T05:56:44;8.80;;;2.90;;
5521;SDS011;2783;48.730;8.006;2022-10-16T05:59:10;4.85;;;2.20;;
5521;SDS011;2783;48.730;8.006;2022-10-16T06:01:35;4.82;;;1.90;;
5521;SDS011;2783;48.730;8.006;2022-10-16T06:04:01;5.63;;;1.92;;
5521;SDS011;2783;48.730;8.006;2022-10-16T06:06:27;4.93;;;2.03;;
5521;SDS011;2783;48.730;8.006;2022-10-16T06:08:54;4.55;;;1.80;;
5521;SDS011;2783;48.730;8.006;2022-10-16T06:11:24;5.97;;;2.10;;
5521;SDS011;2783;48.730;8.006;2022-10-16T06:13:52;3.38;;;1.77;;
5521;SDS011;2783;48.730;8.006;2022-10-16T06:16:19;5.65;;;2.00;;
5521;SDS011;2783;48.730;8.006;2022-10-16T06:18:45;5.25;;;2.20;;
5521;SDS011;2783;48.730;8.006;2022-10-16T06:21:12;5.57;;;2.03;;
5521;SDS011;2783;48.730;8.006;2022-10-16T06:23:41;4.18;;;2.17;;
5521;SDS011;2783;48.730;8.006;2022-10-16T06:26:07;5.57;;;1.90;;
5521;SDS011;2783;48.730;8.006;2022-10-16T06:28:37;3.58;;;1.85;;
5521;SDS011;2783;48.730;8.006;2022-10-16T06:31:04;4.72;;;2.60;;
5521;SDS011;2783;48.730;8.006;2022-10-16T06:33:31;4.10;;;1.48;;
5521;SDS011;2783;48.730;8.006;2022-10-16T06:36:01;4.22;;;1.52;;
5521;SDS011;2783;48.730;8.006;2022-10-16T06:38:34;3.63;;;1.85;;
5521;SDS011;2783;48.730;8.006;2022-10-16T06:41:00;3.33;;;2.00;;
5521;SDS011;2783;48.730;8.006;2022-10-16T06:43:25;4.07;;;1.88;;
5521;SDS011;2783;48.730;8.006;2022-10-16T06:45:54;4.18;;;1.90;;
5521;SDS011;2783;48.730;8.006;2022-10-16T06:48:21;4.35;;;1.80;;
5521;SDS011;2783;48.730;8.006;2022-10-16T06:50:58;3.70;;;2.33;;
5521;SDS011;2783;48.730;8.006;2022-10-16T06:53:25;3.13;;;1.98;;
5521;SDS011;2783;48.730;8.006;2022-10-16T06:55:52;4.90;;;2.08;;
5521;SDS011;2783;48.730;8.006;2022-10-16T06:58:17;5.03;;;2.35;;
5521;SDS011;2783;48.730;8.006;2022-10-16T07:00:43;3.33;;;1.70;;
5521;SDS011;2783;48.730;8.006;2022-10-16T07:03:08;4.28;;;1.90;;
5521;SDS011;2783;48.730;8.006;2022-10-16T07:05:38;2.85;;;1.67;;
5521;SDS011;2783;48.730;8.006;2022-10-16T07:08:04;15.85;;;8.07;;
5521;SDS011;2783;48.730;8.006;2022-10-16T07:10:30;38.85;;;24.63;;
5521;SDS011;2783;48.730;8.006;2022-10-16T07:12:56;28.10;;;17.17;;
5521;SDS011;2783;48.730;8.006;2022-10-16T07:15:22;16.42;;;7.03;;
5521;SDS011;2783;48.730;8.006;2022-10-16T07:17:47;20.30;;;12.68;;
5521;SDS011;2783;48.730;8.006;2022-10-16T07:20:13;13.98;;;8.68;;
5521;SDS011;2783;48.730;8.006;2022-10-16T07:22:39;47.13;;;22.33;;
5521;SDS011;2783;48.730;8.006;2022-10-16T07:25:04;229.70;;;90.22;;
5521;SDS011;2783;48.730;8.006;2022-10-16T07:27:30;190.07;;;79.20;;
5521;SDS011;2783;48.730;8.006;2022-10-16T07:29:55;128.55;;;56.03;;
5521;SDS011;2783;48.730;8.006;2022-10-16T07:32:21;70.30;;;32.83;;
5521;SDS011;2783;48.730;8.006;2022-10-16T07:34:46;69.50;;;39.53;;
5521;SDS011;2783;48.730;8.006;2022-10-16T07:37:11;17.25;;;8.65;;
5521;SDS011;2783;48.730;8.006;2022-10-16T07:39:37;9.43;;;4.07;;
5521;SDS011;2783;48.730;8.006;2022-10-16T07:42:02;8.63;;;4.63;;
5521;SDS011;2783;48.730;8.006;2022-10-16T07:44:28;5.20;;;2.40;;
5521;SDS011;2783;48.730;8.006;2022-10-16T07:46:53;2.78;;;1.83;;
5521;SDS011;2783;48.730;8.006;2022-10-16T07:49:18;5.43;;;2.83;;
5521;SDS011;2783;48.730;8.006;2022-10-16T07:51:44;6.00;;;2.63;;
5521;SDS011;2783;48.730;8.006;2022-10-16T07:54:09;7.95;;;2.95;;
5521;SDS011;2783;48.730;8.006;2022-10-16T07:56:35;8.82;;;3.35;;
5521;SDS011;2783;48.730;8.006;2022-10-16T07:59:00;5.45;;;2.40;;
5521;SDS011;2783;48.730;8.006;2022-10-16T08:01:26;6.45;;;2.65;;
5521;SDS011;2783;48.730;8.006;2022-10-16T08:03:51;6.68;;;2.78;;
5521;SDS011;2783;48.730;8.006;2022-10-16T08:06:18;3.97;;;2.03;;
5521;SDS011;2783;48.730;8.006;2022-10-16T08:08:44;3.33;;;1.90;;
5521;SDS011;2783;48.730;8.006;2022-10-16T08:11:10;4.88;;;2.30;;
5521;SDS011;2783;48.730;8.006;2022-10-16T08:13:35;4.95;;;2.05;;
5521;SDS011;2783;48.730;8.006;2022-10-16T08:16:01;3.63;;;1.88;;
5521;SDS011;2783;48.730;8.006;2022-10-16T08:18:33;4.28;;;1.80;;
5521;SDS011;2783;48.730;8.006;2022-10-16T08:21:00;6.22;;;2.40;;
5521;SDS011;2783;48.730;8.006;2022-10-16T08:23:26;3.85;;;1.80;;
5521;SDS011;2783;48.730;8.006;2022-10-16T08:25:52;4.32;;;1.60;;
5521;SDS011;2783;48.730;8.006;2022-10-16T08:28:22;3.13;;;1.50;;
5521;SDS011;2783;48.730;8.006;2022-10-16T08:30:48;4.72;;;1.40;;
5521;SDS011;2783;48.730;8.006;2022-10-16T08:33:13;2.20;;;1.38;;
5521;SDS011;2783;48.730;8.006;2022-10-16T08:35:39;1.73;;;1.05;;
5521;SDS011;2783;48.730;8.006;2022-10-16T08:38:05;2.92;;;1.00;;
5521;SDS011;2783;48.730;8.006;2022-10-16T08:40:31;2.63;;;1.50;;
5521;SDS011;2783;48.730;8.006;2022-10-16T08:50:49;2.95;;;1.00;;
5521;SDS011;2783;48.730;8.006;2022-10-16T08:53:18;7.97;;;1.50;;
5521;SDS011;2783;48.730;8.006;2022-10-16T08:55:50;3.60;;;1.85;;
5521;SDS011;2783;48.730;8.006;2022-10-16T08:58:18;3.85;;;1.40;;
5521;SDS011;2783;48.730;8.006;2022-10-16T09:00:47;3.20;;;1.20;;
5521;SDS011;2783;48.730;8.006;2022-10-16T09:09:03;2.15;;;1.40;;
5521;SDS011;2783;48.730;8.006;2022-10-16T09:22:39;2.55;;;1.08;;
5521;SDS011;2783;48.730;8.006;2022-10-16T09:25:15;14.52;;;4.10;;
5521;SDS011;2783;48.730;8.006;2022-10-16T09:27:43;3.55;;;1.08;;
5521;SDS011;2783;48.730;8.006;2022-10-16T09:30:12;5.60;;;1.00;;
5521;SDS011;2783;48.730;8.006;2022-10-16T09:32:39;3.85;;;1.17;;
5521;SDS011;2783;48.730;8.006;2022-10-16T09:35:09;3.22;;;1.13;;
5521;SDS011;2783;48.730;8.006;2022-10-16T09:37:39;4.15;;;1.13;;
5521;SDS011;2783;48.730;8.006;2022-10-16T09:40:05;3.50;;;1.20;;
5521;SDS011;2783;48.730;8.006;2022-10-16T09:42:32;2.40;;;1.27;;
5521;SDS011;2783;48.730;8.006;2022-10-16T09:45:01;3.00;;;1.23;;
5521;SDS011;2783;48.730;8.006;2022-10-16T09:47:29;4.05;;;1.70;;
5521;SDS011;2783;48.730;8.006;2022-10-16T09:49:59;3.33;;;1.50;;
5521;SDS011;2783;48.730;8.006;2022-10-16T09:52:31;3.13;;;1.40;;
5521;SDS011;2783;48.730;8.006;2022-10-16T09:55:02;2.72;;;1.02;;
5521;SDS011;2783;48.730;8.006;2022-10-16T09:57:51;4.70;;;1.80;;
5521;SDS011;2783;48.730;8.006;2022-10-16T10:00:18;5.65;;;1.58;;
5521;SDS011;2783;48.730;8.006;2022-10-16T10:02:45;5.15;;;1.30;;
5521;SDS011;2783;48.730;8.006;2022-10-16T10:05:20;1.88;;;0.98;;
5521;SDS011;2783;48.730;8.006;2022-10-16T10:07:53;2.30;;;1.40;;
5521;SDS011;2783;48.730;8.006;2022-10-16T10:10:25;5.03;;;1.38;;
5521;SDS011;2783;48.730;8.006;2022-10-16T10:12:53;2.22;;;1.40;;
5521;SDS011;2783;48.730;8.006;2022-10-16T10:15:20;2.03;;;1.00;;
5521;SDS011;2783;48.730;8.006;2022-10-16T10:17:50;2.63;;;1.38;;
5521;SDS011;2783;48.730;8.006;2022-10-16T10:22:53;1.80;;;1.10;;
5521;SDS011;2783;48.730;8.006;2022-10-16T10:25:29;4.95;;;1.48;;
5521;SDS011;2783;48.730;8.006;2022-10-16T10:30:42;4.10;;;1.38;;
5521;SDS011;2783;48.730;8.006;2022-10-16T10:33:27;4.43;;;0.90;;
5521;SDS011;2783;48.730;8.006;2022-10-16T10:44:25;2.33;;;1.30;;
5521;SDS011;2783;48.730;8.006;2022-10-16T10:47:32;5.63;;;1.27;;
5521;SDS011;2783;48.730;8.006;2022-10-16T10:50:10;1.23;;;0.82;;
5521;SDS011;2783;48.730;8.006;2022-10-16T10:55:45;3.20;;;1.42;;
5521;SDS011;2783;48.730;8.006;2022-10-16T10:58:25;3.75;;;1.13;;
5521;SDS011;2783;48.730;8.006;2022-10-16T11:01:14;3.13;;;1.00;;
5521;SDS011;2783;48.730;8.006;2022-10-16T11:06:57;2.65;;;1.23;;
5521;SDS011;2783;48.730;8.006;2022-10-16T11:09:36;3.63;;;1.10;;
5521;SDS011;2783;48.730;8.006;2022-10-16T11:12:15;1.98;;;1.15;;
5521;SDS011;2783;48.730;8.006;2022-10-16T11:17:31;3.20;;;1.33;;
5521;SDS011;2783;48.730;8.006;2022-10-16T11:20:05;3.42;;;1.20;;
5521;SDS011;2783;48.730;8.006;2022-10-16T11:22:41;2.40;;;1.10;;
5521;SDS011;2783;48.730;8.006;2022-10-16T11:25:23;4.93;;;1.45;;
5521;SDS011;2783;48.730;8.006;2022-10-16T11:27:55;3.78;;;1.17;;
5521;SDS011;2783;48.730;8.006;2022-10-16T11:30:30;2.10;;;1.33;;
5521;SDS011;2783;48.730;8.006;2022-10-16T11:33:08;3.30;;;1.40;;
5521;SDS011;2783;48.730;8.006;2022-10-16T11:35:43;3.63;;;1.48;;
5521;SDS011;2783;48.730;8.006;2022-10-16T11:38:15;3.20;;;1.27;;
5521;SDS011;2783;48.730;8.006;2022-10-16T11:41:44;2.78;;;1.42;;
5521;SDS011;2783;48.730;8.006;2022-10-16T11:44:00;2.72;;;1.27;;
5521;SDS011;2783;48.730;8.006;2022-10-16T11:46:40;3.00;;;1.35;;
5521;SDS011;2783;48.730;8.006;2022-10-16T11:58:03;3.90;;;2.03;;
5521;SDS011;2783;48.730;8.006;2022-10-16T12:00:20;4.35;;;1.70;;
5521;SDS011;2783;48.730;8.006;2022-10-16T12:03:12;4.30;;;1.85;;
5521;SDS011;2783;48.730;8.006;2022-10-16T12:08:37;4.80;;;1.50;;
5521;SDS011;2783;48.730;8.006;2022-10-16T12:11:22;2.35;;;1.60;;
5521;SDS011;2783;48.730;8.006;2022-10-16T12:19:44;4.70;;;1.67;;
5521;SDS011;2783;48.730;8.006;2022-10-16T12:22:15;5.50;;;1.55;;
5521;SDS011;2783;48.730;8.006;2022-10-16T12:24:43;4.10;;;1.20;;
5521;SDS011;2783;48.730;8.006;2022-10-16T12:30:04;5.35;;;1.38;;
5521;SDS011;2783;48.730;8.006;2022-10-16T12:32:31;3.22;;;1.40;;
5521;SDS011;2783;48.730;8.006;2022-10-16T12:34:59;4.38;;;1.52;;
5521;SDS011;2783;48.730;8.006;2022-10-16T12:37:28;7.50;;;1.85;;
5521;SDS011;2783;48.730;8.006;2022-10-16T12:39:55;3.83;;;1.35;;
5521;SDS011;2783;48.730;8.006;2022-10-16T12:44:50;3.53;;;1.20;;
5521;SDS011;2783;48.730;8.006;2022-10-16T12:47:21;1.55;;;0.93;;
5521;SDS011;2783;48.730;8.006;2022-10-16T12:49:52;4.70;;;1.27;;
5521;SDS011;2783;48.730;8.006;2022-10-16T12:52:26;3.13;;;1.25;;
5521;SDS011;2783;48.730;8.006;2022-10-16T12:54:58;2.22;;;1.20;;
5521;SDS011;2783;48.730;8.006;2022-10-16T13:05:41;4.25;;;1.38;;
5521;SDS011;2783;48.730;8.006;2022-10-16T13:27:29;8.07;;;1.23;;
5521;SDS011;2783;48.730;8.006;2022-10-16T13:30:19;2.70;;;1.33;;
5521;SDS011;2783;48.730;8.006;2022-10-16T13:32:50;3.72;;;1.30;;
5521;SDS011;2783;48.730;8.006;2022-10-16T13:35:30;6.30;;;1.50;;
5521;SDS011;2783;48.730;8.006;2022-10-16T13:38:14;4.35;;;1.27;;
5521;SDS011;2783;48.730;8.006;2022-10-16T13:40:52;2.05;;;1.00;;
5521;SDS011;2783;48.730;8.006;2022-10-16T13:43:31;3.60;;;1.30;;
5521;SDS011;2783;48.730;8.006;2022-10-16T13:46:01;3.50;;;1.38;;
5521;SDS011;2783;48.730;8.006;2022-10-16T13:48:29;4.40;;;1.40;;
5521;SDS011;2783;48.730;8.006;2022-10-16T13:50:59;2.55;;;1.05;;
5521;SDS011;2783;48.730;8.006;2022-10-16T13:53:27;4.30;;;1.75;;
5521;SDS011;2783;48.730;8.006;2022-10-16T13:55:54;6.72;;;1.10;;
5521;SDS011;2783;48.730;8.006;2022-10-16T13:58:20;1.70;;;1.10;;
5521;SDS011;2783;48.730;8.006;2022-10-16T14:00:55;4.88;;;1.10;;
5521;SDS011;2783;48.730;8.006;2022-10-16T14:03:23;3.05;;;1.17;;
5521;SDS011;2783;48.730;8.006;2022-10-16T14:05:51;1.70;;;1.02;;
5521;SDS011;2783;48.730;8.006;2022-10-16T14:08:18;4.10;;;1.27;;
5521;SDS011;2783;48.730;8.006;2022-10-16T14:10:48;4.28;;;1.38;;
5521;SDS011;2783;48.730;8.006;2022-10-16T14:13:19;4.28;;;1.20;;
5521;SDS011;2783;48.730;8.006;2022-10-16T14:15:51;2.97;;;1.10;;
5521;SDS011;2783;48.730;8.006;2022-10-16T14:18:21;4.00;;;1.23;;
5521;SDS011;2783;48.730;8.006;2022-10-16T14:20:49;2.28;;;1.10;;
5521;SDS011;2783;48.730;8.006;2022-10-16T14:23:22;2.28;;;0.95;;
5521;SDS011;2783;48.730;8.006;2022-10-16T14:26:04;6.07;;;1.52;;
5521;SDS011;2783;48.730;8.006;2022-10-16T14:28:31;5.40;;;1.40;;
5521;SDS011;2783;48.730;8.006;2022-10-16T14:30:57;4.93;;;1.13;;
5521;SDS011;2783;48.730;8.006;2022-10-16T14:33:30;4.72;;;1.20;;
5521;SDS011;2783;48.730;8.006;2022-10-16T14:36:02;2.50;;;1.10;;
5521;SDS011;2783;48.730;8.006;2022-10-16T14:38:31;4.50;;;2.30;;
5521;SDS011;2783;48.730;8.006;2022-10-16T14:40:57;2.42;;;1.20;;
5521;SDS011;2783;48.730;8.006;2022-10-16T14:43:28;4.78;;;1.52;;
5521;SDS011;2783;48.730;8.006;2022-10-16T14:46:02;2.47;;;1.20;;
5521;SDS011;2783;48.730;8.006;2022-10-16T14:48:33;4.95;;;1.25;;
5521;SDS011;2783;48.730;8.006;2022-10-16T14:50:59;6.03;;;1.55;;
5521;SDS011;2783;48.730;8.006;2022-10-16T14:53:24;6.53;;;1.60;;
5521;SDS011;2783;48.730;8.006;2022-10-16T14:55:50;5.00;;;1.23;;
5521;SDS011;2783;48.730;8.006;2022-10-16T14:58:19;2.30;;;1.45;;
5521;SDS011;2783;48.730;8.006;2022-10-16T15:00:47;4.25;;;1.52;;
5521;SDS011;2783;48.730;8.006;2022-10-16T15:03:13;4.10;;;1.40;;
5521;SDS011;2783;48.730;8.006;2022-10-16T15:05:38;2.80;;;1.23;;
5521;SDS011;2783;48.730;8.006;2022-10-16T15:08:04;3.10;;;1.40;;
5521;SDS011;2783;48.730;8.006;2022-10-16T15:10:33;2.72;;;1.30;;
5521;SDS011;2783;48.730;8.006;2022-10-16T15:13:12;10.55;;;1.67;;
5521;SDS011;2783;48.730;8.006;2022-10-16T15:15:45;13.00;;;2.83;;
5521;SDS011;2783;48.730;8.006;2022-10-16T15:18:12;13.60;;;1.50;;
5521;SDS011;2783;48.730;8.006;2022-10-16T15:20:40;4.75;;;1.20;;
5521;SDS011;2783;48.730;8.006;2022-10-16T15:23:09;6.85;;;1.40;;
5521;SDS011;2783;48.730;8.006;2022-10-16T15:25:43;10.88;;;2.97;;
5521;SDS011;2783;48.730;8.006;2022-10-16T15:28:11;22.27;;;2.78;;
5521;SDS011;2783;48.730;8.006;2022-10-16T15:30:38;10.23;;;2.08;;
5521;SDS011;2783;48.730;8.006;2022-10-16T15:33:04;14.68;;;2.35;;
5521;SDS011;2783;48.730;8.006;2022-10-16T15:35:34;13.10;;;2.22;;
5521;SDS011;2783;48.730;8.006;2022-10-16T15:38:00;35.10;;;4.03;;
5521;SDS011;2783;48.730;8.006;2022-10-16T15:40:25;11.07;;;2.55;;
5521;SDS011;2783;48.730;8.006;2022-10-16T15:42:51;10.15;;;1.63;;
5521;SDS011;2783;48.730;8.006;2022-10-16T15:45:16;5.80;;;1.42;;
5521;SDS011;2783;48.730;8.006;2022-10-16T15:47:44;7.13;;;1.70;;
5521;SDS011;2783;48.730;8.006;2022-10-16T15:50:10;6.78;;;1.33;;
5521;SDS011;2783;48.730;8.006;2022-10-16T15:52:38;14.88;;;3.08;;
5521;SDS011;2783;48.730;8.006;2022-10-16T15:55:05;6.60;;;1.50;;
5521;SDS011;2783;48.730;8.006;2022-10-16T15:57:34;4.32;;;1.63;;
5521;SDS011;2783;48.730;8.006;2022-10-16T16:00:00;5.70;;;1.38;;
5521;SDS011;2783;48.730;8.006;2022-10-16T16:02:25;6.85;;;1.77;;
5521;SDS011;2783;48.730;8.006;2022-10-16T16:04:51;5.00;;;1.30;;
5521;SDS011;2783;48.730;8.006;2022-10-16T16:07:17;3.60;;;1.15;;
5521;SDS011;2783;48.730;8.006;2022-10-16T16:09:43;4.13;;;1.83;;
5521;SDS011;2783;48.730;8.006;2022-10-16T16:12:09;5.75;;;1.70;;
5521;SDS011;2783;48.730;8.006;2022-10-16T16:14:35;3.13;;;1.80;;
5521;SDS011;2783;48.730;8.006;2022-10-16T16:17:04;14.27;;;2.55;;
5521;SDS011;2783;48.730;8.006;2022-10-16T16:19:29;8.27;;;2.10;;
5521;SDS011;2783;48.730;8.006;2022-10-16T16:21:55;4.03;;;1.30;;
5521;SDS011;2783;48.730;8.006;2022-10-16T16:24:21;6.55;;;1.73;;
5521;SDS011;2783;48.730;8.006;2022-10-16T16:26:46;6.70;;;1.98;;
5521;SDS011;2783;48.730;8.006;2022-10-16T16:29:12;6.40;;;1.80;;
5521;SDS011;2783;48.730;8.006;2022-10-16T16:31:39;3.63;;;1.80;;
5521;SDS011;2783;48.730;8.006;2022-10-16T16:34:05;7.20;;;1.73;;
5521;SDS011;2783;48.730;8.006;2022-10-16T16:36:31;4.53;;;1.88;;
5521;SDS011;2783;48.730;8.006;2022-10-16T16:38:57;3.78;;;1.35;;
5521;SDS011;2783;48.730;8.006;2022-10-16T16:41:24;3.22;;;1.48;;
5521;SDS011;2783;48.730;8.006;2022-10-16T16:43:53;3.75;;;1.38;;
5521;SDS011;2783;48.730;8.006;2022-10-16T16:46:19;3.17;;;1.80;;
5521;SDS011;2783;48.730;8.006;2022-10-16T16:48:46;4.28;;;1.98;;
5521;SDS011;2783;48.730;8.006;2022-10-16T16:51:13;2.60;;;1.40;;
5521;SDS011;2783;48.730;8.006;2022-10-16T16:53:41;5.88;;;1.98;;
5521;SDS011;2783;48.730;8.006;2022-10-16T16:56:07;2.50;;;1.40;;
5521;SDS011;2783;48.730;8.006;2022-10-16T16:58:33;2.33;;;1.60;;
5521;SDS011;2783;48.730;8.006;2022-10-16T17:00:59;5.03;;;1.90;;
5521;SDS011;2783;48.730;8.006;2022-10-16T17:03:30;10.00;;;1.85;;
5521;SDS011;2783;48.730;8.006;2022-10-16T17:05:57;5.13;;;2.10;;
5521;SDS011;2783;48.730;8.006;2022-10-16T17:08:23;4.50;;;1.58;;
5521;SDS011;2783;48.730;8.006;2022-10-16T17:10:49;6.72;;;1.75;;